sensor_id;sensor_type;location;lat;lon;timestamp;pressure;altitude;pressure_sealevel;temperature;humidity
79690;BME280;69156;55.932;-3.238;2023-08-12T00:00:08;100073.53;;;18.22;59.46
79690;BME280;69156;55.932;-3.238;2023-08-12T00:02:31;100069.58;;;18.52;59.19
79690;BME280;69156;55.932;-3.238;2023-08-12T00:04:57;100069.97;;;18.42;59.18
79690;BME280;69156;55.932;-3.238;2023-08-12T00:07:22;100070.10;;;18.49;58.98
79690;BME280;69156;55.932;-3.238;2023-08-12T00:09:48;100072.43;;;18.42;59.09
79690;BME280;69156;55.932;-3.238;2023-08-12T00:12:13;100075.88;;;18.42;58.93
79690;BME280;69156;55.932;-3.238;2023-08-12T00:14:38;100077.31;;;18.40;59.03
79690;BME280;69156;55.932;-3.238;2023-08-12T00:17:04;100076.19;;;18.55;58.73
79690;BME280;69156;55.932;-3.238;2023-08-12T00:19:29;100075.86;;;18.57;59.08
79690;BME280;69156;55.932;-3.238;2023-08-12T00:21:54;100067.77;;;18.55;59.11
79690;BME280;69156;55.932;-3.238;2023-08-12T00:24:19;100068.56;;;18.45;59.29
79690;BME280;69156;55.932;-3.238;2023-08-12T00:26:44;100065.46;;;18.40;59.28
79690;BME280;69156;55.932;-3.238;2023-08-12T00:29:10;100059.08;;;18.33;59.42
79690;BME280;69156;55.932;-3.238;2023-08-12T00:31:35;100053.83;;;18.37;59.49
79690;BME280;69156;55.932;-3.238;2023-08-12T00:34:01;100055.06;;;18.32;59.56
79690;BME280;69156;55.932;-3.238;2023-08-12T00:36:26;100047.90;;;18.46;59.29
79690;BME280;69156;55.932;-3.238;2023-08-12T00:38:51;100049.23;;;18.30;59.35
79690;BME280;69156;55.932;-3.238;2023-08-12T00:41:17;100044.66;;;18.33;59.64
79690;BME280;69156;55.932;-3.238;2023-08-12T00:43:43;100041.84;;;18.33;59.55
79690;BME280;69156;55.932;-3.238;2023-08-12T00:46:09;100044.65;;;18.27;59.52
79690;BME280;69156;55.932;-3.238;2023-08-12T00:48:34;100045.79;;;18.37;59.53
79690;BME280;69156;55.932;-3.238;2023-08-12T00:51:00;100046.79;;;18.42;59.43
79690;BME280;69156;55.932;-3.238;2023-08-12T00:53:25;100044.71;;;18.30;59.48
79690;BME280;69156;55.932;-3.238;2023-08-12T00:55:50;100046.15;;;18.26;59.47
79690;BME280;69156;55.932;-3.238;2023-08-12T00:58:16;100042.30;;;18.20;59.49
79690;BME280;69156;55.932;-3.238;2023-08-12T01:00:42;100045.19;;;18.34;59.46
79690;BME280;69156;55.932;-3.238;2023-08-12T01:03:07;100040.65;;;18.19;59.30
79690;BME280;69156;55.932;-3.238;2023-08-12T01:05:33;100036.58;;;18.09;59.75
79690;BME280;69156;55.932;-3.238;2023-08-12T01:07:57;100034.22;;;18.16;59.98
79690;BME280;69156;55.932;-3.238;2023-08-12T01:10:27;100034.14;;;18.23;59.99
79690;BME280;69156;55.932;-3.238;2023-08-12T01:12:53;100038.20;;;18.13;60.40
79690;BME280;69156;55.932;-3.238;2023-08-12T01:15:18;100037.12;;;18.12;60.43
79690;BME280;69156;55.932;-3.238;2023-08-12T01:17:42;100038.00;;;18.17;60.46
79690;BME280;69156;55.932;-3.238;2023-08-12T01:20:07;100025.99;;;18.12;60.45
79690;BME280;69156;55.932;-3.238;2023-08-12T01:22:32;100025.53;;;18.08;60.43
79690;BME280;69156;55.932;-3.238;2023-08-12T01:24:57;100022.89;;;18.17;60.52
79690;BME280;69156;55.932;-3.238;2023-08-12T01:27:23;100018.55;;;18.18;60.56
79690;BME280;69156;55.932;-3.238;2023-08-12T01:29:51;100015.42;;;18.11;60.66
79690;BME280;69156;55.932;-3.238;2023-08-12T01:32:22;100012.40;;;18.06;60.72
79690;BME280;69156;55.932;-3.238;2023-08-12T01:34:46;100010.54;;;18.11;60.81
79690;BME280;69156;55.932;-3.238;2023-08-12T01:37:10;100005.54;;;18.09;60.69
79690;BME280;69156;55.932;-3.238;2023-08-12T01:39:34;100006.76;;;18.13;60.66
79690;BME280;69156;55.932;-3.238;2023-08-12T01:41:58;99997.24;;;18.03;60.80
79690;BME280;69156;55.932;-3.238;2023-08-12T01:44:25;99992.87;;;18.09;60.92
79690;BME280;69156;55.932;-3.238;2023-08-12T01:46:50;99993.88;;;18.05;60.95
79690;BME280;69156;55.932;-3.238;2023-08-12T01:49:15;99993.45;;;17.92;61.30
79690;BME280;69156;55.932;-3.238;2023-08-12T01:51:41;99990.08;;;17.97;61.38
79690;BME280;69156;55.932;-3.238;2023-08-12T01:54:07;99987.97;;;17.93;61.37
79690;BME280;69156;55.932;-3.238;2023-08-12T01:56:32;99979.34;;;18.00;61.37
79690;BME280;69156;55.932;-3.238;2023-08-12T01:58:58;99976.72;;;17.89;61.51
79690;BME280;69156;55.932;-3.238;2023-08-12T02:01:23;99975.26;;;18.08;61.52
79690;BME280;69156;55.932;-3.238;2023-08-12T02:03:48;99973.37;;;18.06;61.54
79690;BME280;69156;55.932;-3.238;2023-08-12T02:06:13;99973.60;;;18.07;61.66
79690;BME280;69156;55.932;-3.238;2023-08-12T02:08:39;99971.65;;;18.00;61.75
79690;BME280;69156;55.932;-3.238;2023-08-12T02:11:06;99968.63;;;18.07;61.49
79690;BME280;69156;55.932;-3.238;2023-08-12T02:13:31;99971.52;;;18.03;61.63
79690;BME280;69156;55.932;-3.238;2023-08-12T02:15:57;99977.47;;;18.05;61.65
79690;BME280;69156;55.932;-3.238;2023-08-12T02:18:23;99972.81;;;18.16;61.73
79690;BME280;69156;55.932;-3.238;2023-08-12T02:20:48;99969.58;;;18.05;61.76
79690;BME280;69156;55.932;-3.238;2023-08-12T02:23:13;99976.69;;;17.97;62.05
79690;BME280;69156;55.932;-3.238;2023-08-12T02:25:39;99975.05;;;17.97;62.03
79690;BME280;69156;55.932;-3.238;2023-08-12T02:28:04;99970.94;;;17.95;62.09
79690;BME280;69156;55.932;-3.238;2023-08-12T02:30:30;99971.94;;;17.91;62.14
79690;BME280;69156;55.932;-3.238;2023-08-12T02:32:55;99969.20;;;18.04;62.22
79690;BME280;69156;55.932;-3.238;2023-08-12T02:35:21;99964.41;;;17.92;62.22
79690;BME280;69156;55.932;-3.238;2023-08-12T02:37:48;99960.21;;;17.96;62.30
79690;BME280;69156;55.932;-3.238;2023-08-12T02:40:12;99953.25;;;17.88;62.49
79690;BME280;69156;55.932;-3.238;2023-08-12T02:42:37;99941.42;;;17.97;62.17
79690;BME280;69156;55.932;-3.238;2023-08-12T02:45:03;99943.05;;;18.07;61.96
79690;BME280;69156;55.932;-3.238;2023-08-12T02:47:28;99941.81;;;17.95;62.12
79690;BME280;69156;55.932;-3.238;2023-08-12T02:49:53;99950.90;;;18.07;61.89
79690;BME280;69156;55.932;-3.238;2023-08-12T02:52:20;99950.13;;;18.18;61.64
79690;BME280;69156;55.932;-3.238;2023-08-12T02:54:45;99946.46;;;18.14;61.45
79690;BME280;69156;55.932;-3.238;2023-08-12T02:57:11;99941.17;;;18.16;61.43
79690;BME280;69156;55.932;-3.238;2023-08-12T02:59:37;99937.23;;;18.00;61.43
79690;BME280;69156;55.932;-3.238;2023-08-12T03:02:02;99935.10;;;18.15;61.48
79690;BME280;69156;55.932;-3.238;2023-08-12T03:04:29;99930.50;;;18.11;61.51
79690;BME280;69156;55.932;-3.238;2023-08-12T03:06:53;99926.48;;;18.15;61.51
79690;BME280;69156;55.932;-3.238;2023-08-12T03:09:19;99925.97;;;18.09;61.61
79690;BME280;69156;55.932;-3.238;2023-08-12T03:11:45;99923.00;;;18.05;61.77
79690;BME280;69156;55.932;-3.238;2023-08-12T03:14:11;99921.85;;;18.10;61.67
79690;BME280;69156;55.932;-3.238;2023-08-12T03:16:36;99923.95;;;18.12;61.66
79690;BME280;69156;55.932;-3.238;2023-08-12T03:19:01;99924.21;;;18.15;61.69
79690;BME280;69156;55.932;-3.238;2023-08-12T03:21:26;99926.08;;;18.22;61.51
79690;BME280;69156;55.932;-3.238;2023-08-12T03:23:53;99921.76;;;18.07;61.38
79690;BME280;69156;55.932;-3.238;2023-08-12T03:26:18;99922.34;;;18.23;61.18
79690;BME280;69156;55.932;-3.238;2023-08-12T03:28:44;99914.47;;;18.23;61.33
79690;BME280;69156;55.932;-3.238;2023-08-12T03:31:09;99910.50;;;18.11;61.42
79690;BME280;69156;55.932;-3.238;2023-08-12T03:33:34;99910.84;;;18.27;61.15
79690;BME280;69156;55.932;-3.238;2023-08-12T03:36:00;99905.77;;;18.15;61.11
79690;BME280;69156;55.932;-3.238;2023-08-12T03:38:25;99902.88;;;18.07;61.44
79690;BME280;69156;55.932;-3.238;2023-08-12T03:40:51;99896.04;;;18.07;61.29
79690;BME280;69156;55.932;-3.238;2023-08-12T03:43:16;99898.00;;;18.25;61.02
79690;BME280;69156;55.932;-3.238;2023-08-12T03:45:42;99900.46;;;18.10;61.19
79690;BME280;69156;55.932;-3.238;2023-08-12T03:48:07;99899.70;;;18.09;61.16
79690;BME280;69156;55.932;-3.238;2023-08-12T03:50:33;99904.95;;;18.00;61.37
79690;BME280;69156;55.932;-3.238;2023-08-12T03:52:58;99898.69;;;17.84;61.64
79690;BME280;69156;55.932;-3.238;2023-08-12T03:55:24;99897.54;;;18.04;61.66
79690;BME280;69156;55.932;-3.238;2023-08-12T03:57:50;99894.55;;;17.97;61.56
79690;BME280;69156;55.932;-3.238;2023-08-12T04:00:15;99890.73;;;17.98;61.76
79690;BME280;69156;55.932;-3.238;2023-08-12T04:02:41;99886.26;;;17.98;61.74
79690;BME280;69156;55.932;-3.238;2023-08-12T04:05:07;99877.92;;;17.89;61.75
79690;BME280;69156;55.932;-3.238;2023-08-12T04:07:32;99878.26;;;17.85;61.82
79690;BME280;69156;55.932;-3.238;2023-08-12T04:09:56;99876.04;;;17.95;61.81
79690;BME280;69156;55.932;-3.238;2023-08-12T04:12:22;99874.92;;;17.82;61.92
79690;BME280;69156;55.932;-3.238;2023-08-12T04:14:48;99873.47;;;17.94;61.68
79690;BME280;69156;55.932;-3.238;2023-08-12T04:17:13;99876.06;;;17.97;61.51
79690;BME280;69156;55.932;-3.238;2023-08-12T04:19:39;99877.17;;;17.96;61.54
79690;BME280;69156;55.932;-3.238;2023-08-12T04:22:04;99878.99;;;17.90;61.40
79690;BME280;69156;55.932;-3.238;2023-08-12T04:24:29;99877.03;;;17.98;61.19
79690;BME280;69156;55.932;-3.238;2023-08-12T04:26:55;99878.12;;;18.11;60.98
79690;BME280;69156;55.932;-3.238;2023-08-12T04:29:21;99872.34;;;18.11;60.72
79690;BME280;69156;55.932;-3.238;2023-08-12T04:31:47;99865.76;;;18.09;60.41
79690;BME280;69156;55.932;-3.238;2023-08-12T04:34:14;99860.53;;;18.18;60.23
79690;BME280;69156;55.932;-3.238;2023-08-12T04:36:40;99856.91;;;18.24;59.95
79690;BME280;69156;55.932;-3.238;2023-08-12T04:39:06;99855.46;;;18.07;60.13
79690;BME280;69156;55.932;-3.238;2023-08-12T04:41:32;99855.47;;;18.17;60.44
79690;BME280;69156;55.932;-3.238;2023-08-12T04:43:57;99850.14;;;18.16;60.31
79690;BME280;69156;55.932;-3.238;2023-08-12T04:46:23;99846.49;;;18.23;60.17
79690;BME280;69156;55.932;-3.238;2023-08-12T04:48:48;99841.01;;;18.20;59.94
79690;BME280;69156;55.932;-3.238;2023-08-12T04:51:13;99842.24;;;18.24;59.98
79690;BME280;69156;55.932;-3.238;2023-08-12T04:53:39;99841.30;;;18.25;59.85
79690;BME280;69156;55.932;-3.238;2023-08-12T04:56:04;99839.17;;;18.38;59.82
79690;BME280;69156;55.932;-3.238;2023-08-12T04:58:29;99839.16;;;18.25;59.84
79690;BME280;69156;55.932;-3.238;2023-08-12T05:00:55;99838.61;;;18.24;59.87
79690;BME280;69156;55.932;-3.238;2023-08-12T05:03:21;99837.96;;;18.33;59.88
79690;BME280;69156;55.932;-3.238;2023-08-12T05:05:49;99837.20;;;18.26;59.78
79690;BME280;69156;55.932;-3.238;2023-08-12T05:08:11;99832.24;;;18.34;59.70
79690;BME280;69156;55.932;-3.238;2023-08-12T05:10:38;99832.86;;;18.46;59.46
79690;BME280;69156;55.932;-3.238;2023-08-12T05:13:03;99834.61;;;18.38;59.56
79690;BME280;69156;55.932;-3.238;2023-08-12T05:15:29;99835.02;;;18.42;59.39
79690;BME280;69156;55.932;-3.238;2023-08-12T05:17:54;99832.23;;;18.35;59.36
79690;BME280;69156;55.932;-3.238;2023-08-12T05:20:19;99833.78;;;18.50;59.32
79690;BME280;69156;55.932;-3.238;2023-08-12T05:22:44;99828.02;;;18.46;59.22
79690;BME280;69156;55.932;-3.238;2023-08-12T05:25:09;99832.20;;;18.57;58.97
79690;BME280;69156;55.932;-3.238;2023-08-12T05:27:35;99823.11;;;18.53;59.16
79690;BME280;69156;55.932;-3.238;2023-08-12T05:30:01;99816.90;;;18.42;59.03
79690;BME280;69156;55.932;-3.238;2023-08-12T05:32:26;99817.96;;;18.38;59.06
79690;BME280;69156;55.932;-3.238;2023-08-12T05:34:52;99819.17;;;18.45;58.93
79690;BME280;69156;55.932;-3.238;2023-08-12T05:37:17;99816.24;;;18.48;58.99
79690;BME280;69156;55.932;-3.238;2023-08-12T05:39:42;99815.60;;;18.57;59.10
79690;BME280;69156;55.932;-3.238;2023-08-12T05:42:08;99809.43;;;18.47;59.29
79690;BME280;69156;55.932;-3.238;2023-08-12T05:44:33;99800.54;;;18.41;59.33
79690;BME280;69156;55.932;-3.238;2023-08-12T05:47:00;99800.54;;;18.47;59.00
79690;BME280;69156;55.932;-3.238;2023-08-12T05:49:25;99805.47;;;18.46;59.16
79690;BME280;69156;55.932;-3.238;2023-08-12T05:51:51;99806.37;;;18.53;59.24
79690;BME280;69156;55.932;-3.238;2023-08-12T05:54:16;99801.47;;;18.46;59.50
79690;BME280;69156;55.932;-3.238;2023-08-12T05:56:42;99797.78;;;18.52;59.42
79690;BME280;69156;55.932;-3.238;2023-08-12T05:59:07;99794.69;;;18.41;59.43
79690;BME280;69156;55.932;-3.238;2023-08-12T06:01:32;99784.67;;;18.46;59.32
79690;BME280;69156;55.932;-3.238;2023-08-12T06:03:57;99790.51;;;18.56;58.96
79690;BME280;69156;55.932;-3.238;2023-08-12T06:06:23;99789.48;;;18.60;59.00
79690;BME280;69156;55.932;-3.238;2023-08-12T06:08:48;99789.76;;;18.45;59.16
79690;BME280;69156;55.932;-3.238;2023-08-12T06:11:14;99792.62;;;18.38;59.14
79690;BME280;69156;55.932;-3.238;2023-08-12T06:13:39;99789.83;;;18.34;59.57
79690;BME280;69156;55.932;-3.238;2023-08-12T06:16:05;99800.47;;;18.43;59.43
79690;BME280;69156;55.932;-3.238;2023-08-12T06:18:30;99796.77;;;18.36;59.66
79690;BME280;69156;55.932;-3.238;2023-08-12T06:20:55;99795.95;;;18.50;59.39
79690;BME280;69156;55.932;-3.238;2023-08-12T06:23:22;99792.09;;;18.51;59.32
79690;BME280;69156;55.932;-3.238;2023-08-12T06:25:47;99790.31;;;18.59;59.27
79690;BME280;69156;55.932;-3.238;2023-08-12T06:28:13;99789.72;;;18.69;59.14
79690;BME280;69156;55.932;-3.238;2023-08-12T06:30:39;99791.98;;;18.58;59.25
79690;BME280;69156;55.932;-3.238;2023-08-12T06:33:04;99784.48;;;18.69;59.27
79690;BME280;69156;55.932;-3.238;2023-08-12T06:35:30;99779.80;;;18.82;59.11
79690;BME280;69156;55.932;-3.238;2023-08-12T06:37:56;99775.49;;;18.72;59.20
79690;BME280;69156;55.932;-3.238;2023-08-12T06:40:21;99776.61;;;18.78;59.08
79690;BME280;69156;55.932;-3.238;2023-08-12T06:42:46;99775.69;;;18.75;59.18
79690;BME280;69156;55.932;-3.238;2023-08-12T06:45:12;99771.13;;;18.76;59.51
79690;BME280;69156;55.932;-3.238;2023-08-12T06:47:39;99769.81;;;18.87;59.29
79690;BME280;69156;55.932;-3.238;2023-08-12T06:50:05;99770.14;;;18.99;59.04
79690;BME280;69156;55.932;-3.238;2023-08-12T06:52:29;99775.34;;;18.90;58.89
79690;BME280;69156;55.932;-3.238;2023-08-12T06:54:54;99775.29;;;18.82;59.20
79690;BME280;69156;55.932;-3.238;2023-08-12T06:57:19;99778.43;;;18.86;59.39
79690;BME280;69156;55.932;-3.238;2023-08-12T06:59:45;99775.83;;;18.90;59.75
79690;BME280;69156;55.932;-3.238;2023-08-12T07:02:10;99775.47;;;18.91;59.98
79690;BME280;69156;55.932;-3.238;2023-08-12T07:04:35;99772.90;;;18.89;60.99
79690;BME280;69156;55.932;-3.238;2023-08-12T07:07:01;99769.49;;;18.76;61.47
79690;BME280;69156;55.932;-3.238;2023-08-12T07:09:26;99763.85;;;18.61;62.49
79690;BME280;69156;55.932;-3.238;2023-08-12T07:11:53;99762.67;;;18.57;63.09
79690;BME280;69156;55.932;-3.238;2023-08-12T07:14:18;99763.64;;;18.64;62.94
79690;BME280;69156;55.932;-3.238;2023-08-12T07:16:43;99755.10;;;18.64;62.94
79690;BME280;69156;55.932;-3.238;2023-08-12T07:19:08;99754.54;;;18.57;63.49
79690;BME280;69156;55.932;-3.238;2023-08-12T07:21:34;99752.44;;;18.48;63.53
79690;BME280;69156;55.932;-3.238;2023-08-12T07:23:59;99751.04;;;18.48;63.87
79690;BME280;69156;55.932;-3.238;2023-08-12T07:26:25;99748.38;;;18.57;64.29
79690;BME280;69156;55.932;-3.238;2023-08-12T07:28:50;99745.98;;;18.49;64.25
79690;BME280;69156;55.932;-3.238;2023-08-12T07:31:15;99747.86;;;18.38;64.64
79690;BME280;69156;55.932;-3.238;2023-08-12T07:33:41;99743.57;;;18.39;64.94
79690;BME280;69156;55.932;-3.238;2023-08-12T07:36:06;99745.17;;;18.43;65.54
79690;BME280;69156;55.932;-3.238;2023-08-12T07:38:31;99741.35;;;18.39;65.92
79690;BME280;69156;55.932;-3.238;2023-08-12T07:40:57;99743.95;;;18.40;65.56
79690;BME280;69156;55.932;-3.238;2023-08-12T07:43:22;99738.73;;;18.44;66.15
79690;BME280;69156;55.932;-3.238;2023-08-12T07:45:51;99733.61;;;18.52;66.12
79690;BME280;69156;55.932;-3.238;2023-08-12T07:48:13;99731.24;;;18.50;66.07
79690;BME280;69156;55.932;-3.238;2023-08-12T07:50:40;99729.65;;;18.43;65.76
79690;BME280;69156;55.932;-3.238;2023-08-12T07:53:05;99726.19;;;18.34;65.81
79690;BME280;69156;55.932;-3.238;2023-08-12T07:55:30;99724.95;;;18.47;65.94
79690;BME280;69156;55.932;-3.238;2023-08-12T07:57:56;99720.03;;;18.37;65.78
79690;BME280;69156;55.932;-3.238;2023-08-12T08:00:22;99717.36;;;18.36;66.39
79690;BME280;69156;55.932;-3.238;2023-08-12T08:02:47;99716.07;;;18.38;66.38
79690;BME280;69156;55.932;-3.238;2023-08-12T08:05:12;99716.08;;;18.61;66.46
79690;BME280;69156;55.932;-3.238;2023-08-12T08:07:38;99716.38;;;18.55;66.33
79690;BME280;69156;55.932;-3.238;2023-08-12T08:10:05;99717.35;;;18.78;65.77
79690;BME280;69156;55.932;-3.238;2023-08-12T08:12:29;99715.34;;;18.69;65.36
79690;BME280;69156;55.932;-3.238;2023-08-12T08:14:54;99710.62;;;18.68;65.61
79690;BME280;69156;55.932;-3.238;2023-08-12T08:17:20;99715.20;;;18.74;65.07
79690;BME280;69156;55.932;-3.238;2023-08-12T08:19:45;99712.58;;;18.66;65.43
79690;BME280;69156;55.932;-3.238;2023-08-12T08:22:11;99709.56;;;18.78;64.95
79690;BME280;69156;55.932;-3.238;2023-08-12T08:24:37;99717.71;;;18.86;64.67
79690;BME280;69156;55.932;-3.238;2023-08-12T08:27:03;99712.36;;;18.95;64.80
79690;BME280;69156;55.932;-3.238;2023-08-12T08:29:28;99715.66;;;18.72;65.26
79690;BME280;69156;55.932;-3.238;2023-08-12T08:31:54;99722.90;;;18.74;65.77
79690;BME280;69156;55.932;-3.238;2023-08-12T08:34:19;99719.54;;;18.70;66.01
79690;BME280;69156;55.932;-3.238;2023-08-12T08:36:45;99716.33;;;18.64;66.35
79690;BME280;69156;55.932;-3.238;2023-08-12T08:39:11;99718.26;;;18.61;66.75
79690;BME280;69156;55.932;-3.238;2023-08-12T08:41:39;99710.76;;;18.32;67.08
79690;BME280;69156;55.932;-3.238;2023-08-12T08:44:02;99708.50;;;18.34;67.25
79690;BME280;69156;55.932;-3.238;2023-08-12T08:46:27;99709.07;;;18.57;67.36
79690;BME280;69156;55.932;-3.238;2023-08-12T08:48:52;99713.28;;;18.55;67.63
79690;BME280;69156;55.932;-3.238;2023-08-12T08:51:18;99710.46;;;18.66;67.27
79690;BME280;69156;55.932;-3.238;2023-08-12T08:53:43;99707.12;;;18.49;67.26
79690;BME280;69156;55.932;-3.238;2023-08-12T08:56:09;99703.32;;;18.63;66.93
79690;BME280;69156;55.932;-3.238;2023-08-12T08:58:34;99702.94;;;18.65;66.87
79690;BME280;69156;55.932;-3.238;2023-08-12T09:01:00;99700.99;;;18.61;66.77
79690;BME280;69156;55.932;-3.238;2023-08-12T09:03:25;99697.04;;;18.66;66.97
79690;BME280;69156;55.932;-3.238;2023-08-12T09:05:50;99696.51;;;18.53;66.97
79690;BME280;69156;55.932;-3.238;2023-08-12T09:08:15;99696.36;;;18.67;67.35
79690;BME280;69156;55.932;-3.238;2023-08-12T09:10:41;99694.71;;;18.72;67.63
79690;BME280;69156;55.932;-3.238;2023-08-12T09:13:06;99699.34;;;18.73;67.54
79690;BME280;69156;55.932;-3.238;2023-08-12T09:15:31;99694.64;;;18.96;67.13
79690;BME280;69156;55.932;-3.238;2023-08-12T09:17:56;99692.43;;;19.05;67.30
79690;BME280;69156;55.932;-3.238;2023-08-12T09:20:21;99691.45;;;19.14;66.86
79690;BME280;69156;55.932;-3.238;2023-08-12T09:22:55;99688.37;;;19.18;66.81
79690;BME280;69156;55.932;-3.238;2023-08-12T09:25:12;99688.03;;;19.26;66.24
79690;BME280;69156;55.932;-3.238;2023-08-12T09:27:37;99687.99;;;19.44;66.66
79690;BME280;69156;55.932;-3.238;2023-08-12T09:30:03;99689.27;;;19.21;66.25
79690;BME280;69156;55.932;-3.238;2023-08-12T09:32:27;99688.10;;;19.17;66.24
79690;BME280;69156;55.932;-3.238;2023-08-12T09:34:53;99692.91;;;19.25;66.25
79690;BME280;69156;55.932;-3.238;2023-08-12T09:37:18;99689.32;;;19.36;66.73
79690;BME280;69156;55.932;-3.238;2023-08-12T09:39:43;99692.30;;;19.42;66.74
79690;BME280;69156;55.932;-3.238;2023-08-12T09:42:09;99692.49;;;19.56;67.18
79690;BME280;69156;55.932;-3.238;2023-08-12T09:44:35;99689.50;;;19.50;66.99
79690;BME280;69156;55.932;-3.238;2023-08-12T09:47:01;99687.40;;;19.57;66.76
79690;BME280;69156;55.932;-3.238;2023-08-12T09:49:27;99687.54;;;19.60;65.75
79690;BME280;69156;55.932;-3.238;2023-08-12T09:51:52;99689.35;;;19.46;65.85
79690;BME280;69156;55.932;-3.238;2023-08-12T09:54:18;99693.00;;;19.55;65.81
79690;BME280;69156;55.932;-3.238;2023-08-12T09:56:43;99689.10;;;19.54;65.79
79690;BME280;69156;55.932;-3.238;2023-08-12T09:59:08;99687.49;;;19.57;64.74
79690;BME280;69156;55.932;-3.238;2023-08-12T10:01:34;99686.92;;;19.59;64.39
79690;BME280;69156;55.932;-3.238;2023-08-12T10:03:59;99678.85;;;19.61;64.01
79690;BME280;69156;55.932;-3.238;2023-08-12T10:06:25;99688.00;;;19.68;64.24
79690;BME280;69156;55.932;-3.238;2023-08-12T10:08:50;99684.52;;;19.65;63.99
79690;BME280;69156;55.932;-3.238;2023-08-12T10:11:15;99683.21;;;19.66;63.32
79690;BME280;69156;55.932;-3.238;2023-08-12T10:13:41;99686.50;;;19.75;63.58
79690;BME280;69156;55.932;-3.238;2023-08-12T10:16:06;99686.94;;;19.77;63.12
79690;BME280;69156;55.932;-3.238;2023-08-12T10:18:31;99689.99;;;19.98;63.33
79690;BME280;69156;55.932;-3.238;2023-08-12T10:20:57;99694.19;;;20.00;62.84
79690;BME280;69156;55.932;-3.238;2023-08-12T10:23:22;99689.66;;;20.03;63.27
79690;BME280;69156;55.932;-3.238;2023-08-12T10:25:49;99683.83;;;20.17;62.34
79690;BME280;69156;55.932;-3.238;2023-08-12T10:28:13;99685.50;;;20.28;62.42
79690;BME280;69156;55.932;-3.238;2023-08-12T10:30:40;99687.83;;;20.32;62.50
79690;BME280;69156;55.932;-3.238;2023-08-12T10:33:05;99680.79;;;20.39;61.70
79690;BME280;69156;55.932;-3.238;2023-08-12T10:35:41;99681.49;;;20.72;62.12
79690;BME280;69156;55.932;-3.238;2023-08-12T10:37:56;99675.17;;;20.73;61.27
79690;BME280;69156;55.932;-3.238;2023-08-12T10:40:23;99674.80;;;20.76;60.69
79690;BME280;69156;55.932;-3.238;2023-08-12T10:42:49;99670.00;;;20.73;60.24
79690;BME280;69156;55.932;-3.238;2023-08-12T10:45:15;99672.82;;;20.67;59.78
79690;BME280;69156;55.932;-3.238;2023-08-12T10:47:41;99675.13;;;20.65;59.99
79690;BME280;69156;55.932;-3.238;2023-08-12T10:50:06;99671.96;;;20.73;60.52
79690;BME280;69156;55.932;-3.238;2023-08-12T10:52:31;99668.04;;;20.75;60.01
79690;BME280;69156;55.932;-3.238;2023-08-12T10:55:16;99666.09;;;20.83;59.35
79690;BME280;69156;55.932;-3.238;2023-08-12T10:57:35;99667.04;;;20.91;59.80
79690;BME280;69156;55.932;-3.238;2023-08-12T10:59:49;99665.15;;;20.97;59.95
79690;BME280;69156;55.932;-3.238;2023-08-12T11:02:16;99667.36;;;21.00;58.85
79690;BME280;69156;55.932;-3.238;2023-08-12T11:04:38;99657.90;;;21.00;58.91
79690;BME280;69156;55.932;-3.238;2023-08-12T11:07:15;99660.78;;;21.14;58.17
79690;BME280;69156;55.932;-3.238;2023-08-12T11:09:29;99660.16;;;21.49;57.26
79690;BME280;69156;55.932;-3.238;2023-08-12T11:11:58;99653.69;;;21.74;56.99
79690;BME280;69156;55.932;-3.238;2023-08-12T11:14:24;99655.70;;;21.77;56.30
79690;BME280;69156;55.932;-3.238;2023-08-12T11:16:47;99652.56;;;21.83;56.11
79690;BME280;69156;55.932;-3.238;2023-08-12T11:19:14;99655.96;;;21.68;55.97
79690;BME280;69156;55.932;-3.238;2023-08-12T11:21:39;99656.16;;;21.66;56.68
79690;BME280;69156;55.932;-3.238;2023-08-12T11:24:05;99651.51;;;21.81;56.69
79690;BME280;69156;55.932;-3.238;2023-08-12T11:26:30;99650.61;;;21.68;56.83
79690;BME280;69156;55.932;-3.238;2023-08-12T11:28:54;99650.01;;;21.73;55.72
79690;BME280;69156;55.932;-3.238;2023-08-12T11:31:21;99656.35;;;21.81;55.79
79690;BME280;69156;55.932;-3.238;2023-08-12T11:33:48;99659.56;;;21.64;56.07
79690;BME280;69156;55.932;-3.238;2023-08-12T11:36:13;99665.15;;;21.56;59.64
79690;BME280;69156;55.932;-3.238;2023-08-12T11:38:39;99664.01;;;21.00;62.76
79690;BME280;69156;55.932;-3.238;2023-08-12T11:41:04;99663.41;;;20.50;63.85
79690;BME280;69156;55.932;-3.238;2023-08-12T11:43:31;99651.97;;;20.52;64.59
79690;BME280;69156;55.932;-3.238;2023-08-12T11:45:55;99661.51;;;20.66;64.73
79690;BME280;69156;55.932;-3.238;2023-08-12T11:48:20;99664.18;;;20.80;64.73
79690;BME280;69156;55.932;-3.238;2023-08-12T11:50:46;99664.66;;;20.81;64.38
79690;BME280;69156;55.932;-3.238;2023-08-12T11:53:12;99665.99;;;20.99;64.85
79690;BME280;69156;55.932;-3.238;2023-08-12T11:55:37;99665.76;;;21.15;64.49
79690;BME280;69156;55.932;-3.238;2023-08-12T11:58:03;99655.35;;;21.09;62.73
79690;BME280;69156;55.932;-3.238;2023-08-12T12:00:28;99659.75;;;21.18;62.34
79690;BME280;69156;55.932;-3.238;2023-08-12T12:02:55;99665.28;;;21.47;61.61
79690;BME280;69156;55.932;-3.238;2023-08-12T12:05:22;99663.72;;;21.44;60.19
79690;BME280;69156;55.932;-3.238;2023-08-12T12:07:45;99659.43;;;21.39;59.56
79690;BME280;69156;55.932;-3.238;2023-08-12T12:10:13;99665.10;;;21.28;59.37
79690;BME280;69156;55.932;-3.238;2023-08-12T12:12:37;99667.93;;;21.32;59.33
79690;BME280;69156;55.932;-3.238;2023-08-12T12:15:04;99668.99;;;21.41;60.54
79690;BME280;69156;55.932;-3.238;2023-08-12T12:17:28;99669.46;;;21.32;59.90
79690;BME280;69156;55.932;-3.238;2023-08-12T12:19:55;99671.99;;;21.10;60.98
79690;BME280;69156;55.932;-3.238;2023-08-12T12:22:26;99670.41;;;20.90;62.10
79690;BME280;69156;55.932;-3.238;2023-08-12T12:24:46;99674.61;;;20.86;61.96
79690;BME280;69156;55.932;-3.238;2023-08-12T12:27:11;99666.39;;;20.60;62.56
79690;BME280;69156;55.932;-3.238;2023-08-12T12:29:36;99667.43;;;20.89;62.70
79690;BME280;69156;55.932;-3.238;2023-08-12T12:32:02;99659.97;;;21.09;61.99
79690;BME280;69156;55.932;-3.238;2023-08-12T12:34:27;99665.69;;;21.33;61.39
79690;BME280;69156;55.932;-3.238;2023-08-12T12:36:52;99657.97;;;21.56;60.69